Time;durP1;ratioP1;P1;durP2;ratioP2;P2;SDS_P1;SDS_P2;PMS_P1;PMS_P2;Temp;Humidity;BMP_temperature;BMP_pressure;BME280_temperature;BME280_humidity;BME280_pressure;Samples;Min_cycle;Max_cycle;Signal;HPM_P1;HPM_P2
2023/04/21 00:00:55;;;;;;;0.40;0.40;;;9.30;99.90;;;;;;5072293;28;20032;-72
2023/04/21 00:03:26;;;;;;;0.17;0.17;;;9.30;99.90;;;;;;5072759;28;20017;-71
2023/04/21 00:05:55;;;;;;;0.38;0.38;;;9.30;99.90;;;;;;5072364;28;20401;-72
2023/04/21 00:08:21;;;;;;;0.20;0.20;;;9.40;99.90;;;;;;5074211;28;20050;-72
2023/04/21 00:10:46;;;;;;;0.17;0.17;;;9.60;99.90;;;;;;5076055;28;20047;-72
2023/04/21 00:13:13;;;;;;;3.40;3.20;;;9.30;99.90;;;;;;5058605;28;20017;-72
2023/04/21 00:15:39;;;;;;;0.30;0.30;;;9.30;99.90;;;;;;5076373;28;20035;-72
2023/04/21 00:18:05;;;;;;;0.73;0.30;;;9.30;99.90;;;;;;5076269;28;20025;-72
2023/04/21 00:20:31;;;;;;;0.20;0.20;;;9.20;99.90;;;;;;5076186;28;20024;-72
2023/04/21 00:22:57;;;;;;;0.25;0.25;;;9.30;99.90;;;;;;5075884;28;20037;-72
2023/04/21 00:25:24;;;;;;;1.80;1.38;;;9.20;99.90;;;;;;5073574;28;20404;-71
2023/04/21 00:27:50;;;;;;;0.30;0.30;;;9.20;99.90;;;;;;5065006;28;20066;-71
2023/04/21 00:30:16;;;;;;;0.13;0.13;;;9.40;99.90;;;;;;5076137;28;20393;-71
2023/04/21 00:32:42;;;;;;;0.20;0.20;;;9.50;99.90;;;;;;5066565;28;20369;-71
2023/04/21 00:35:08;;;;;;;0.25;0.25;;;9.50;99.90;;;;;;5061868;28;20451;-71
2023/04/21 00:37:34;;;;;;;0.63;0.63;;;9.40;99.90;;;;;;5075565;28;20396;-72
2023/04/21 00:40:00;;;;;;;2.63;0.95;;;9.30;99.90;;;;;;5074330;28;20025;-71
2023/04/21 00:42:26;;;;;;;0.20;0.20;;;9.50;99.90;;;;;;5055287;28;20024;-72
2023/04/21 00:44:53;;;;;;;2.00;1.85;;;9.60;99.90;;;;;;5055291;28;20060;-72
2023/04/21 00:47:19;;;;;;;0.10;0.10;;;9.40;99.90;;;;;;5055700;28;20060;-72
2023/04/21 00:49:45;;;;;;;0.35;0.35;;;9.50;99.90;;;;;;5055445;28;20534;-72
2023/04/21 00:52:15;;;;;;;0.10;0.10;;;9.40;99.90;;;;;;5034406;28;20390;-71
2023/04/21 00:54:42;;;;;;;2.65;2.45;;;9.30;99.90;;;;;;5036062;28;20393;-71
2023/04/21 00:57:09;;;;;;;2.72;0.88;;;9.30;99.90;;;;;;5055506;28;20036;-71
2023/04/21 00:59:35;;;;;;;0.20;0.20;;;9.50;99.90;;;;;;5055525;28;20082;-72
2023/04/21 01:02:02;;;;;;;1.10;1.00;;;9.50;99.90;;;;;;5037440;28;20033;-72
2023/04/21 01:04:34;;;;;;;0.38;0.38;;;9.60;99.90;;;;;;5037435;28;20025;-72
2023/04/21 01:07:00;;;;;;;0.22;0.22;;;9.60;99.90;;;;;;5033858;28;20096;-71
2023/04/21 01:09:26;;;;;;;0.20;0.20;;;9.60;99.90;;;;;;5037568;28;20207;-72
2023/04/21 01:12:09;;;;;;;0.47;0.47;;;9.60;99.90;;;;;;5033851;28;20052;-72
2023/04/21 01:14:36;;;;;;;6.97;1.40;;;9.70;99.90;;;;;;5037539;28;20473;-71
2023/04/21 01:17:04;;;;;;;1.83;1.73;;;9.70;99.90;;;;;;5037065;28;20025;-72
2023/04/21 01:19:40;;;;;;;0.65;0.65;;;9.60;99.90;;;;;;5033355;28;20101;-72
2023/04/21 01:22:10;;;;;;;3.55;2.38;;;9.50;99.90;;;;;;5032792;28;20059;-72
2023/04/21 01:24:47;;;;;;;0.20;0.20;;;9.40;99.90;;;;;;5047143;28;20047;-71
2023/04/21 01:27:18;;;;;;;3.22;2.78;;;9.50;99.90;;;;;;5033532;28;20489;-71
2023/04/21 01:29:46;;;;;;;0.95;0.95;;;9.20;99.90;;;;;;5026175;28;20025;-71
2023/04/21 01:32:18;;;;;;;1.25;1.15;;;9.30;99.90;;;;;;5032174;28;20080;-71
2023/04/21 01:34:45;;;;;;;0.85;0.85;;;9.40;99.90;;;;;;5061600;28;20025;-71
2023/04/21 01:37:13;;;;;;;3.80;2.00;;;9.50;99.90;;;;;;5036494;28;20033;-71
2023/04/21 01:39:41;;;;;;;1.98;0.75;;;9.50;99.90;;;;;;5044458;28;20099;-71
2023/04/21 01:42:07;;;;;;;2.65;1.98;;;9.40;99.90;;;;;;5052095;28;20075;-72
2023/04/21 01:44:35;;;;;;;4.13;1.13;;;9.30;99.90;;;;;;5050101;28;20026;-71
2023/04/21 01:47:01;;;;;;;0.40;0.40;;;9.40;99.90;;;;;;5048910;28;20033;-72
2023/04/21 01:49:26;;;;;;;0.32;0.32;;;9.60;99.90;;;;;;5049901;28;20112;-71
2023/04/21 01:51:52;;;;;;;2.83;2.05;;;9.60;99.90;;;;;;5041228;28;20552;-72
2023/04/21 01:54:19;;;;;;;0.85;0.85;;;9.30;99.90;;;;;;5052043;28;20457;-72
2023/04/21 01:56:44;;;;;;;1.20;1.10;;;9.30;99.90;;;;;;5054142;28;20032;-71
2023/04/21 01:59:10;;;;;;;1.20;0.77;;;9.30;99.90;;;;;;5051257;28;20025;-72
2023/04/21 02:01:36;;;;;;;0.40;0.40;;;9.20;99.90;;;;;;5049763;28;20035;-72
2023/04/21 02:04:03;;;;;;;1.08;0.95;;;9.40;99.90;;;;;;5046910;28;20036;-72
2023/04/21 02:06:32;;;;;;;0.20;0.20;;;9.60;99.90;;;;;;5053664;28;20037;-72
2023/04/21 02:08:58;;;;;;;3.83;2.88;;;9.30;99.90;;;;;;5049601;28;20025;-72
2023/04/21 02:11:27;;;;;;;0.98;0.93;;;9.40;99.90;;;;;;5048110;28;20032;-72
2023/04/21 02:13:54;;;;;;;2.45;2.28;;;9.40;99.90;;;;;;5044771;28;20033;-71
2023/04/21 02:16:24;;;;;;;1.27;1.00;;;9.40;99.90;;;;;;5053938;28;20377;-72
2023/04/21 02:18:52;;;;;;;2.35;2.17;;;9.50;99.90;;;;;;5049480;28;20022;-72
2023/04/21 02:21:20;;;;;;;2.40;2.17;;;9.40;99.90;;;;;;5052193;28;20485;-72
2023/04/21 02:23:48;;;;;;;1.15;1.13;;;9.40;99.90;;;;;;5049206;28;20053;-71
2023/04/21 02:26:14;;;;;;;0.55;0.55;;;9.10;99.90;;;;;;5052456;28;20087;-72
2023/04/21 02:28:40;;;;;;;0.57;0.57;;;9.10;99.90;;;;;;5049366;28;20095;-71
2023/04/21 02:31:06;;;;;;;0.88;0.85;;;9.00;99.90;;;;;;5051742;28;20068;-71
2023/04/21 02:33:33;;;;;;;6.60;4.65;;;9.10;99.90;;;;;;5053305;28;20029;-71
2023/04/21 02:35:59;;;;;;;0.20;0.20;;;8.90;99.90;;;;;;5049109;28;20040;-72
2023/04/21 02:38:24;;;;;;;1.67;1.55;;;8.90;99.90;;;;;;5049926;28;20187;-71
2023/04/21 02:40:50;;;;;;;0.65;0.65;;;8.90;99.90;;;;;;5032489;28;20040;-71
2023/04/21 02:43:17;;;;;;;1.27;1.17;;;9.10;99.90;;;;;;5030478;28;20166;-71
2023/04/21 02:45:43;;;;;;;5.47;4.18;;;9.00;99.90;;;;;;5053480;28;20127;-71
2023/04/21 02:48:09;;;;;;;1.38;1.27;;;8.80;99.90;;;;;;5015588;28;20025;-72
2023/04/21 02:50:35;;;;;;;4.90;3.33;;;8.90;99.90;;;;;;5051866;28;20052;-71
2023/04/21 02:53:01;;;;;;;3.92;2.25;;;8.70;99.90;;;;;;5032178;28;20021;-72
2023/04/21 02:55:27;;;;;;;2.92;2.15;;;8.60;99.90;;;;;;5028428;28;20397;-72
2023/04/21 02:57:53;;;;;;;2.72;2.38;;;8.60;99.90;;;;;;5053342;28;20025;-71
2023/04/21 03:00:21;;;;;;;0.10;0.10;;;8.80;99.90;;;;;;5035587;28;20370;-72
2023/04/21 03:02:47;;;;;;;1.27;1.17;;;8.70;99.90;;;;;;5052647;28;20032;-72
2023/04/21 03:05:16;;;;;;;2.25;1.45;;;8.80;99.90;;;;;;5032100;28;20025;-72
2023/04/21 03:07:44;;;;;;;3.13;2.15;;;8.70;99.90;;;;;;5048928;28;20025;-72
2023/04/21 03:10:10;;;;;;;0.80;0.80;;;8.80;99.90;;;;;;5035363;28;20028;-72
2023/04/21 03:12:36;;;;;;;0.68;0.68;;;8.70;99.90;;;;;;5031695;28;20029;-72
2023/04/21 03:15:03;;;;;;;0.52;0.52;;;8.80;99.90;;;;;;5031677;28;20025;-72
2023/04/21 03:17:29;;;;;;;1.48;1.38;;;8.90;99.90;;;;;;5045040;28;20083;-72
2023/04/21 03:19:55;;;;;;;0.63;0.60;;;8.90;99.90;;;;;;5031613;28;20390;-72
2023/04/21 03:22:20;;;;;;;0.10;0.10;;;9.00;99.90;;;;;;5043301;28;20063;-72
2023/04/21 03:24:47;;;;;;;1.38;1.27;;;9.00;99.90;;;;;;5033648;28;20467;-72
2023/04/21 03:27:13;;;;;;;3.33;1.98;;;9.00;99.90;;;;;;5031781;28;20073;-72
2023/04/21 03:29:38;;;;;;;0.80;0.80;;;8.80;99.90;;;;;;5046982;28;20053;-72
2023/04/21 03:32:04;;;;;;;2.17;1.48;;;8.70;99.90;;;;;;5031288;28;20014;-72
2023/04/21 03:34:30;;;;;;;0.73;0.73;;;8.80;99.90;;;;;;5043631;28;20021;-72
2023/04/21 03:36:58;;;;;;;0.63;0.47;;;8.70;99.90;;;;;;5031576;28;20075;-72
2023/04/21 03:39:24;;;;;;;0.20;0.20;;;8.60;99.90;;;;;;5030903;28;20491;-72
2023/04/21 03:41:51;;;;;;;0.28;0.28;;;8.80;99.90;;;;;;5051442;28;20116;-72
2023/04/21 03:44:17;;;;;;;0.20;0.20;;;8.80;99.90;;;;;;5052138;28;20159;-71
2023/04/21 03:46:42;;;;;;;0.85;0.75;;;8.80;99.90;;;;;;5048565;28;20091;-72
2023/04/21 03:49:08;;;;;;;0.10;0.10;;;8.70;99.90;;;;;;5052396;28;20052;-72
2023/04/21 03:51:34;;;;;;;1.90;1.75;;;8.70;99.90;;;;;;5048182;28;20112;-72
2023/04/21 03:54:00;;;;;;;3.13;2.13;;;8.80;99.90;;;;;;5047381;28;20477;-72
2023/04/21 03:56:26;;;;;;;5.38;3.75;;;8.70;99.90;;;;;;5052598;28;20028;-71
2023/04/21 03:58:52;;;;;;;0.57;0.55;;;8.50;99.90;;;;;;5052408;28;20099;-72
2023/04/21 04:01:18;;;;;;;2.42;1.23;;;8.60;99.90;;;;;;5047599;28;20100;-72
2023/04/21 04:03:43;;;;;;;3.72;2.47;;;8.60;99.90;;;;;;5038884;28;20112;-72
2023/04/21 04:06:09;;;;;;;4.38;2.20;;;8.60;99.90;;;;;;5049197;28;20055;-72
2023/04/21 04:08:35;;;;;;;2.35;2.13;;;8.80;99.90;;;;;;5052363;28;20021;-71
2023/04/21 04:11:00;;;;;;;2.72;2.47;;;8.80;99.90;;;;;;5052080;28;20389;-72
2023/04/21 04:13:27;;;;;;;1.27;1.17;;;8.70;99.90;;;;;;5052621;28;20048;-72
2023/04/21 04:15:53;;;;;;;0.98;0.50;;;8.80;99.90;;;;;;5047205;28;20508;-72
2023/04/21 04:18:19;;;;;;;1.05;0.57;;;8.80;99.90;;;;;;5051251;28;20025;-72
2023/04/21 04:20:45;;;;;;;8.18;5.55;;;9.10;99.90;;;;;;5052286;28;20029;-71
2023/04/21 04:23:11;;;;;;;2.65;2.05;;;8.70;99.90;;;;;;5052267;28;20531;-72
2023/04/21 04:25:38;;;;;;;0.43;0.43;;;8.50;99.90;;;;;;5052103;28;20037;-72
2023/04/21 04:28:04;;;;;;;6.57;1.17;;;8.50;99.90;;;;;;5048910;28;20029;-72
2023/04/21 04:30:32;;;;;;;0.52;0.52;;;8.50;99.90;;;;;;5052111;28;20040;-71
2023/04/21 04:32:57;;;;;;;1.15;1.05;;;8.60;99.90;;;;;;5047626;28;20022;-72
2023/04/21 04:35:24;;;;;;;1.70;0.95;;;8.70;99.90;;;;;;5051636;28;20439;-71
2023/04/21 04:37:49;;;;;;;1.92;1.60;;;8.50;99.90;;;;;;5052302;28;20104;-71
2023/04/21 04:40:15;;;;;;;0.40;0.40;;;8.50;99.90;;;;;;5051670;28;20108;-71
2023/04/21 04:42:41;;;;;;;4.25;2.15;;;8.60;99.90;;;;;;5052074;28;20469;-72
2023/04/21 04:45:08;;;;;;;1.05;0.95;;;8.50;99.90;;;;;;5051064;28;20032;-71
2023/04/21 04:47:34;;;;;;;0.30;0.30;;;8.40;99.90;;;;;;5051373;28;20073;-72
2023/04/21 04:50:00;;;;;;;0.43;0.43;;;8.60;99.90;;;;;;5033830;28;20021;-72
2023/04/21 04:52:26;;;;;;;1.17;1.08;;;8.60;99.90;;;;;;5051850;28;20087;-71
2023/04/21 04:54:52;;;;;;;0.40;0.40;;;8.70;99.90;;;;;;5052977;28;20079;-71
2023/04/21 04:57:18;;;;;;;7.47;4.80;;;8.90;99.90;;;;;;5055460;28;20037;-72
2023/04/21 04:59:43;;;;;;;1.02;1.00;;;8.50;99.90;;;;;;5055440;28;20103;-72
2023/04/21 05:02:10;;;;;;;0.80;0.80;;;8.40;99.90;;;;;;5037470;28;20024;-71
2023/04/21 05:04:36;;;;;;;3.20;1.25;;;8.30;99.90;;;;;;5055237;28;20100;-71
2023/04/21 05:07:02;;;;;;;8.52;7.88;;;8.30;99.90;;;;;;5055110;28;20052;-71
2023/04/21 05:09:27;;;;;;;0.10;0.10;;;8.40;99.90;;;;;;5055322;28;20021;-71
2023/04/21 05:11:53;;;;;;;4.88;1.73;;;8.50;99.90;;;;;;5055384;28;20029;-72
2023/04/21 05:14:19;;;;;;;1.25;1.20;;;8.60;99.90;;;;;;5054893;28;20497;-71
2023/04/21 05:16:45;;;;;;;3.15;2.28;;;8.60;99.90;;;;;;5055131;28;20025;-71
2023/04/21 05:19:11;;;;;;;5.50;1.77;;;8.70;99.90;;;;;;5055500;28;20025;-72
2023/04/21 05:21:36;;;;;;;0.40;0.40;;;8.60;99.90;;;;;;5055080;28;20021;-72
2023/04/21 05:24:02;;;;;;;3.45;2.47;;;8.60;99.90;;;;;;5055239;28;20047;-72
2023/04/21 05:26:28;;;;;;;5.43;4.03;;;8.60;99.90;;;;;;5035969;28;20034;-72
2023/04/21 05:28:55;;;;;;;3.80;0.73;;;8.50;99.90;;;;;;5054736;28;20024;-72
2023/04/21 05:31:22;;;;;;;2.13;1.98;;;8.60;99.90;;;;;;5054692;28;20497;-72
2023/04/21 05:33:48;;;;;;;1.65;1.20;;;8.60;99.90;;;;;;5055171;28;20028;-71
2023/04/21 05:36:14;;;;;;;3.60;1.65;;;8.70;99.90;;;;;;5054676;28;20031;-72
2023/04/21 05:38:39;;;;;;;0.40;0.40;;;8.80;99.90;;;;;;5054683;28;20021;-72
2023/04/21 05:41:06;;;;;;;0.52;0.52;;;8.90;99.90;;;;;;5054827;28;20036;-72
2023/04/21 05:43:35;;;;;;;1.85;1.67;;;9.00;99.90;;;;;;5054411;28;20467;-72
2023/04/21 05:46:01;;;;;;;4.10;2.83;;;9.00;99.90;;;;;;5033723;28;20033;-72
2023/04/21 05:48:27;;;;;;;2.08;1.75;;;9.00;99.90;;;;;;5050023;28;20024;-72
2023/04/21 05:50:54;;;;;;;4.43;3.13;;;9.00;99.90;;;;;;5054319;28;20378;-71
2023/04/21 05:53:22;;;;;;;1.65;1.50;;;9.10;99.90;;;;;;5033406;28;20029;-72
2023/04/21 05:55:48;;;;;;;5.70;3.33;;;9.10;99.90;;;;;;5050191;28;20025;-72
2023/04/21 05:58:14;;;;;;;3.28;3.00;;;9.10;99.90;;;;;;5053885;28;20037;-72
2023/04/21 06:00:40;;;;;;;5.97;3.95;;;9.00;99.90;;;;;;5046238;28;20038;-72
2023/04/21 06:03:06;;;;;;;1.58;1.00;;;9.00;99.90;;;;;;5030732;28;20020;-72
2023/04/21 06:05:32;;;;;;;2.75;1.63;;;9.10;99.90;;;;;;5063222;28;20037;-72
2023/04/21 06:07:58;;;;;;;1.95;1.17;;;9.20;99.90;;;;;;5058147;28;20531;-72
2023/04/21 06:10:24;;;;;;;6.60;5.60;;;9.30;99.90;;;;;;5053675;28;20021;-72
2023/04/21 06:12:50;;;;;;;9.48;6.20;;;9.30;99.90;;;;;;5055791;28;20086;-72
2023/04/21 06:15:16;;;;;;;7.65;5.47;;;9.20;99.90;;;;;;5060469;28;20469;-72
2023/04/21 06:17:41;;;;;;;5.53;4.95;;;9.20;99.90;;;;;;5057498;28;20079;-72
2023/04/21 06:20:08;;;;;;;3.55;2.72;;;9.10;99.90;;;;;;5044295;28;20473;-73
2023/04/21 06:22:34;;;;;;;2.58;0.68;;;9.20;99.90;;;;;;5046540;28;20044;-72
2023/04/21 06:24:59;;;;;;;10.30;4.40;;;9.30;99.90;;;;;;5064456;28;20023;-72
2023/04/21 06:27:25;;;;;;;5.72;4.47;;;9.50;99.90;;;;;;5063229;28;20039;-72
2023/04/21 06:29:55;;;;;;;8.35;5.10;;;9.40;99.90;;;;;;5060057;28;20528;-72
2023/04/21 06:32:20;;;;;;;5.95;4.80;;;9.50;99.90;;;;;;5053879;28;20021;-72
2023/04/21 06:34:46;;;;;;;3.50;2.45;;;9.60;99.90;;;;;;5065279;28;20051;-72
2023/04/21 06:37:12;;;;;;;9.43;5.55;;;9.50;99.90;;;;;;5062903;28;20044;-72
2023/04/21 06:39:38;;;;;;;2.92;2.53;;;9.40;99.90;;;;;;5053232;28;20032;-72
2023/04/21 06:42:03;;;;;;;1.70;1.17;;;9.40;99.90;;;;;;5056165;28;20425;-73
2023/04/21 06:44:31;;;;;;;11.52;5.72;;;9.50;99.90;;;;;;5052723;28;20021;-72
2023/04/21 06:46:57;;;;;;;2.83;2.63;;;9.40;99.90;;;;;;5062858;28;20504;-72
2023/04/21 06:49:22;;;;;;;2.95;1.50;;;9.50;99.90;;;;;;5061735;28;20017;-72
2023/04/21 06:51:48;;;;;;;1.25;1.05;;;9.60;99.90;;;;;;5063905;28;20085;-72
2023/04/21 06:54:14;;;;;;;1.80;0.93;;;9.60;99.90;;;;;;5053198;28;20029;-72
2023/04/21 06:56:41;;;;;;;4.40;2.25;;;9.70;99.90;;;;;;5054553;28;20025;-72
2023/04/21 06:59:08;;;;;;;13.57;6.30;;;9.80;99.90;;;;;;5052930;28;20028;-72
2023/04/21 07:01:34;;;;;;;7.57;3.80;;;9.90;99.90;;;;;;5046171;28;20024;-72
2023/04/21 07:04:00;;;;;;;6.72;2.28;;;9.80;99.90;;;;;;5053788;28;20025;-72
2023/04/21 07:06:26;;;;;;;9.55;5.50;;;9.90;99.90;;;;;;5057595;28;20033;-71
2023/04/21 07:08:52;;;;;;;3.05;2.80;;;9.90;99.90;;;;;;5054742;28;20119;-72
2023/04/21 07:11:18;;;;;;;10.32;5.78;;;10.00;99.90;;;;;;5053219;28;20444;-71
2023/04/21 07:13:44;;;;;;;29.88;1.65;;;10.10;99.90;;;;;;5061759;28;20086;-72
2023/04/21 07:16:10;;;;;;;7.68;4.10;;;10.10;99.90;;;;;;5058640;28;20028;-73
2023/04/21 07:18:38;;;;;;;11.77;6.80;;;10.20;99.90;;;;;;5056028;28;20032;-73
2023/04/21 07:21:03;;;;;;;15.32;8.23;;;10.20;99.90;;;;;;5054222;28;20025;-73
2023/04/21 07:23:29;;;;;;;8.40;3.38;;;10.20;99.90;;;;;;5054189;28;20370;-73
2023/04/21 07:25:56;;;;;;;10.73;6.97;;;10.20;99.90;;;;;;5066449;28;20032;-73
2023/04/21 07:28:22;;;;;;;11.02;7.63;;;10.30;99.90;;;;;;5055345;28;20022;-73
2023/04/21 07:30:48;;;;;;;13.02;4.85;;;10.20;99.90;;;;;;5052053;28;20427;-73
2023/04/21 07:33:14;;;;;;;2.20;2.03;;;10.40;99.90;;;;;;5040012;28;20025;-73
2023/04/21 07:35:40;;;;;;;1.30;1.05;;;10.50;99.90;;;;;;5055404;28;20370;-73
2023/04/21 07:38:05;;;;;;;2.65;2.10;;;10.70;99.90;;;;;;5046701;28;20366;-73
2023/04/21 07:40:31;;;;;;;10.05;3.30;;;10.80;99.90;;;;;;5051450;28;20049;-74
2023/04/21 07:42:57;;;;;;;2.63;1.38;;;10.80;99.90;;;;;;5053527;28;20497;-73
2023/04/21 07:45:23;;;;;;;6.32;3.33;;;10.90;99.90;;;;;;5052357;28;20025;-73
2023/04/21 07:47:49;;;;;;;3.30;2.25;;;10.90;99.90;;;;;;5057158;28;20112;-73
2023/04/21 07:50:15;;;;;;;5.75;4.22;;;11.00;99.90;;;;;;5057237;28;20103;-72
2023/04/21 07:52:41;;;;;;;4.72;2.38;;;11.00;99.90;;;;;;5061384;28;20025;-71
2023/04/21 07:55:07;;;;;;;1.40;1.30;;;11.10;99.90;;;;;;5050641;28;20037;-72
2023/04/21 07:57:37;;;;;;;3.17;2.90;;;11.30;99.90;;;;;;5051586;28;20104;-72
2023/04/21 08:00:04;;;;;;;0.70;0.70;;;11.40;99.90;;;;;;5048162;28;20028;-72
2023/04/21 08:02:38;;;;;;;9.00;5.68;;;11.60;99.90;;;;;;5061575;28;20025;-72
2023/04/21 08:05:04;;;;;;;5.13;3.13;;;11.70;99.90;;;;;;5059280;28;20031;-73
2023/04/21 08:07:30;;;;;;;7.72;2.47;;;11.80;99.90;;;;;;5056188;28;20101;-72
2023/04/21 08:09:56;;;;;;;7.15;4.28;;;11.80;99.90;;;;;;5051051;28;20505;-74
2023/04/21 08:12:22;;;;;;;5.63;2.70;;;11.80;99.90;;;;;;5061644;28;20108;-72
2023/04/21 08:14:47;;;;;;;6.25;4.13;;;11.80;99.90;;;;;;5058205;28;20029;-73
2023/04/21 08:17:13;;;;;;;8.82;4.03;;;11.90;99.90;;;;;;5058084;28;20508;-72
2023/04/21 08:19:39;;;;;;;10.73;2.95;;;12.00;99.90;;;;;;5056994;28;20074;-72
2023/04/21 08:22:05;;;;;;;6.22;2.67;;;12.20;99.90;;;;;;5083784;28;20119;-72
2023/04/21 08:24:31;;;;;;;4.60;1.95;;;12.40;99.90;;;;;;5062164;28;20603;-73
2023/04/21 08:26:57;;;;;;;11.35;5.68;;;12.30;99.90;;;;;;5059946;28;20029;-72
2023/04/21 08:29:23;;;;;;;6.28;2.63;;;12.30;99.90;;;;;;5059828;28;20040;-71
2023/04/21 08:31:49;;;;;;;6.60;3.70;;;12.30;99.90;;;;;;5057691;28;20016;-73
2023/04/21 08:34:15;;;;;;;2.58;2.15;;;12.40;99.90;;;;;;5054551;28;20076;-72
2023/04/21 08:36:41;;;;;;;4.65;2.42;;;12.60;99.90;;;;;;5064161;28;20064;-72
2023/04/21 08:39:07;;;;;;;7.03;4.25;;;12.70;99.90;;;;;;5061975;28;20024;-72
2023/04/21 08:41:33;;;;;;;4.78;2.50;;;12.50;99.90;;;;;;5061994;28;20047;-73
2023/04/21 08:43:59;;;;;;;4.65;3.20;;;12.70;99.90;;;;;;5037043;28;20385;-72
2023/04/21 08:46:26;;;;;;;2.15;1.35;;;12.80;99.90;;;;;;5064985;28;20036;-72
2023/04/21 08:48:52;;;;;;;7.78;1.55;;;13.10;99.90;;;;;;5065782;28;20398;-73
2023/04/21 08:51:22;;;;;;;8.35;2.63;;;13.40;99.90;;;;;;5066779;28;20021;-72
2023/04/21 08:53:48;;;;;;;3.70;2.83;;;13.60;99.90;;;;;;5067127;28;20039;-72
2023/04/21 08:56:14;;;;;;;4.38;3.03;;;13.20;99.90;;;;;;5058859;28;20017;-72
2023/04/21 08:58:40;;;;;;;0.80;0.80;;;13.00;99.90;;;;;;5055941;28;20115;-72
2023/04/21 09:01:06;;;;;;;0.40;0.40;;;13.30;99.90;;;;;;5059363;28;20116;-72
2023/04/21 09:03:32;;;;;;;4.85;3.42;;;13.70;99.90;;;;;;5068089;28;20029;-72
2023/04/21 09:06:04;;;;;;;0.75;0.65;;;13.70;99.90;;;;;;5063779;28;20144;-73
2023/04/21 09:08:31;;;;;;;3.20;1.30;;;14.00;99.90;;;;;;5057429;28;20029;-72
2023/04/21 09:10:58;;;;;;;2.13;1.13;;;14.20;99.90;;;;;;5054353;28;20037;-72
2023/04/21 09:13:35;;;;;;;3.03;2.55;;;14.40;99.90;;;;;;5054007;28;20103;-73
2023/04/21 09:16:03;;;;;;;5.18;2.33;;;14.30;99.90;;;;;;5051687;28;20020;-73
2023/04/21 09:18:34;;;;;;;2.83;1.98;;;14.20;99.90;;;;;;5055316;28;20013;-73
2023/04/21 09:21:12;;;;;;;2.92;2.63;;;13.90;99.90;;;;;;5060237;28;20059;-73
2023/04/21 09:23:45;;;;;;;1.55;1.45;;;13.60;99.90;;;;;;5054438;28;20044;-73
2023/04/21 09:26:11;;;;;;;2.00;1.60;;;14.00;99.90;;;;;;5054820;28;20411;-73
2023/04/21 09:28:45;;;;;;;12.30;2.67;;;14.40;99.90;;;;;;5063187;28;20110;-73
2023/04/21 09:31:18;;;;;;;0.20;0.20;;;14.70;99.90;;;;;;5060387;28;20061;-73
2023/04/21 09:33:49;;;;;;;9.80;6.80;;;14.90;99.90;;;;;;5054153;28;20025;-73
2023/04/21 09:36:26;;;;;;;3.50;2.23;;;15.20;99.90;;;;;;5060556;28;20100;-73
2023/04/21 09:38:57;;;;;;;2.83;1.85;;;15.10;99.90;;;;;;5051198;28;20024;-73
2023/04/21 09:41:24;;;;;;;2.70;2.13;;;15.50;99.90;;;;;;5061388;28;20582;-73
2023/04/21 09:43:49;;;;;;;4.97;2.38;;;15.70;99.90;;;;;;5061003;28;20484;-73
2023/04/21 09:46:16;;;;;;;7.30;2.97;;;15.70;99.30;;;;;;5057132;28;20032;-73
2023/04/21 09:48:44;;;;;;;4.03;1.83;;;15.10;99.90;;;;;;5054684;28;20021;-73
2023/04/21 09:51:12;;;;;;;2.55;2.05;;;15.20;99.90;;;;;;5054569;28;20017;-73
2023/04/21 09:53:39;;;;;;;3.92;1.67;;;15.40;99.90;;;;;;5063499;28;20030;-73
2023/04/21 09:56:12;;;;;;;3.33;2.65;;;15.20;99.80;;;;;;5064858;28;20487;-73
2023/04/21 09:58:52;;;;;;;4.03;2.05;;;14.80;99.40;;;;;;5060688;28;20076;-73
2023/04/21 10:01:19;;;;;;;11.98;5.00;;;15.00;99.90;;;;;;5056638;28;20025;-73
2023/04/21 10:03:47;;;;;;;1.30;0.90;;;15.30;99.90;;;;;;5063555;28;20021;-73
2023/04/21 10:06:13;;;;;;;2.03;1.92;;;15.30;99.80;;;;;;5066902;28;20044;-73
2023/04/21 10:08:40;;;;;;;6.07;4.32;;;15.60;99.90;;;;;;5063738;28;20570;-73
2023/04/21 10:11:07;;;;;;;8.32;4.57;;;15.80;98.40;;;;;;5061183;28;20523;-73
2023/04/21 10:13:34;;;;;;;7.88;4.63;;;15.40;98.10;;;;;;5054822;28;20515;-73
2023/04/21 10:16:06;;;;;;;0.40;0.40;;;15.40;98.30;;;;;;5061782;28;20067;-73
2023/04/21 10:18:52;;;;;;;0.95;0.63;;;15.80;99.80;;;;;;5041245;28;20037;-73
2023/04/21 10:21:20;;;;;;;4.75;0.55;;;16.40;99.30;;;;;;5062840;28;20024;-72
2023/04/21 10:23:52;;;;;;;0.63;0.63;;;17.00;98.40;;;;;;5038345;28;20107;-73
2023/04/21 10:26:22;;;;;;;;;;;17.30;97.20;;;;;;5054083;28;20033;-72
2023/04/21 10:28:56;;;;;;;1.55;1.45;;;17.20;96.20;;;;;;5068086;28;19909;-72
2023/04/21 10:31:24;;;;;;;3.58;1.98;;;17.20;96.30;;;;;;5055204;28;20390;-73
2023/04/21 10:34:08;;;;;;;6.05;3.08;;;17.00;96.70;;;;;;5057190;28;20347;-72
2023/04/21 10:36:45;;;;;;;2.35;1.90;;;16.70;95.80;;;;;;5056056;28;20120;-72
2023/04/21 10:39:28;;;;;;;2.92;1.95;;;16.60;94.90;;;;;;5051022;28;20032;-72
2023/04/21 10:42:18;;;;;;;3.08;1.98;;;16.70;94.90;;;;;;5056781;28;20040;-71
2023/04/21 10:45:00;;;;;;;8.48;1.80;;;17.10;95.20;;;;;;5056615;28;20130;-72
2023/04/21 10:47:37;;;;;;;0.90;0.80;;;17.20;94.40;;;;;;5053851;28;20041;-72
2023/04/21 10:50:26;;;;;;;1.35;0.63;;;17.40;95.60;;;;;;5055702;28;20056;-73
2023/04/21 10:53:10;;;;;;;0.63;0.40;;;18.20;95.50;;;;;;5054803;28;20026;-72
2023/04/21 10:55:37;;;;;;;1.98;1.27;;;18.70;95.30;;;;;;5067860;28;20142;-73
2023/04/21 10:58:06;;;;;;;1.77;0.95;;;18.50;94.60;;;;;;5059714;28;20408;-73
2023/04/21 11:00:32;;;;;;;1.33;1.10;;;18.00;94.00;;;;;;5057779;28;20385;-72
2023/04/21 11:03:03;;;;;;;0.68;0.68;;;17.80;94.50;;;;;;5057562;28;20028;-71
2023/04/21 11:05:37;;;;;;;0.25;0.25;;;18.20;94.00;;;;;;5069700;28;20055;-72
2023/04/21 11:08:07;;;;;;;1.10;1.00;;;18.80;93.30;;;;;;5053009;28;20029;-72
2023/04/21 11:10:53;;;;;;;0.15;0.15;;;19.20;92.50;;;;;;5052799;28;20040;-73
2023/04/21 11:13:24;;;;;;;0.35;0.30;;;19.50;92.20;;;;;;5052788;28;20061;-73
2023/04/21 11:15:58;;;;;;;1.67;1.15;;;19.40;92.00;;;;;;5053022;28;20029;-72
2023/04/21 11:18:37;;;;;;;1.15;0.77;;;19.90;91.40;;;;;;5052659;28;20017;-71
2023/04/21 11:21:17;;;;;;;0.20;0.20;;;20.10;91.00;;;;;;5050393;28;20197;-73
2023/04/21 11:23:54;;;;;;;0.60;0.60;;;20.40;91.60;;;;;;5051461;28;20143;-72
2023/04/21 11:26:43;;;;;;;1.75;1.25;;;20.50;90.10;;;;;;5052631;28;20040;-72
2023/04/21 11:29:10;;;;;;;0.82;0.82;;;20.20;90.50;;;;;;5052699;28;20021;-72
2023/04/21 11:31:38;;;;;;;2.42;1.48;;;20.60;90.40;;;;;;5052199;28;20024;-73
2023/04/21 11:34:05;;;;;;;1.85;1.55;;;20.30;89.60;;;;;;5052600;28;20021;-72
2023/04/21 11:36:36;;;;;;;2.25;1.58;;;20.20;91.20;;;;;;5052628;28;20043;-72
2023/04/21 11:39:09;;;;;;;4.28;0.75;;;19.90;90.60;;;;;;5052487;28;20345;-72
2023/04/21 11:41:38;;;;;;;4.15;3.08;;;20.00;90.30;;;;;;5052258;28;20094;-72
2023/04/21 11:44:04;;;;;;;2.97;2.35;;;20.40;91.10;;;;;;5052462;28;20025;-72
2023/04/21 11:46:32;;;;;;;4.45;0.40;;;21.20;90.40;;;;;;5052179;28;20063;-72
2023/04/21 11:49:10;;;;;;;1.55;1.13;;;21.10;88.40;;;;;;5052167;28;20017;-72
2023/04/21 11:51:38;;;;;;;0.70;0.70;;;20.60;88.10;;;;;;5052560;28;20029;-73
2023/04/21 11:54:06;;;;;;;0.10;0.10;;;21.10;90.90;;;;;;5032495;28;20057;-72
2023/04/21 11:56:37;;;;;;;1.17;1.15;;;21.50;90.40;;;;;;5052519;28;20393;-72
2023/04/21 11:59:08;;;;;;;4.13;1.77;;;20.90;90.20;;;;;;5051983;28;20028;-72
2023/04/21 12:01:34;;;;;;;5.43;1.13;;;20.40;90.70;;;;;;5052625;28;20033;-72
2023/04/21 12:04:02;;;;;;;1.67;0.75;;;20.40;91.10;;;;;;5051896;28;20363;-72
2023/04/21 12:06:28;;;;;;;1.15;1.15;;;20.50;90.60;;;;;;5051458;28;20513;-72
2023/04/21 12:09:02;;;;;;;4.05;2.50;;;21.00;90.30;;;;;;5038547;28;20029;-72
2023/04/21 12:11:29;;;;;;;0.73;0.73;;;20.50;90.20;;;;;;5035006;28;20079;-72
2023/04/21 12:13:59;;;;;;;0.80;0.80;;;21.30;89.40;;;;;;5047191;28;20024;-72
2023/04/21 12:16:26;;;;;;;2.47;1.73;;;21.00;90.30;;;;;;5056080;28;20025;-72
2023/04/21 12:18:56;;;;;;;1.75;1.65;;;20.60;90.30;;;;;;5056511;28;20021;-73
2023/04/21 12:21:29;;;;;;;1.25;0.90;;;20.90;90.70;;;;;;5056222;28;20025;-72
2023/04/21 12:23:56;;;;;;;1.05;0.75;;;21.60;90.60;;;;;;5056230;28;20029;-72
2023/04/21 12:26:25;;;;;;;1.23;1.17;;;21.60;88.30;;;;;;5056272;28;20386;-72
2023/04/21 12:28:52;;;;;;;3.15;2.17;;;22.50;87.90;;;;;;5055956;28;20055;-72
2023/04/21 12:31:18;;;;;;;7.40;2.55;;;22.80;85.70;;;;;;5056275;28;20370;-73
2023/04/21 12:33:44;;;;;;;2.22;1.48;;;22.40;86.10;;;;;;5056100;28;20025;-73
2023/04/21 12:36:10;;;;;;;1.55;1.27;;;22.40;87.10;;;;;;5055854;28;20397;-72
2023/04/21 12:38:36;;;;;;;1.30;1.20;;;22.10;85.70;;;;;;5055553;28;20067;-72
2023/04/21 12:41:02;;;;;;;2.38;1.40;;;22.30;85.40;;;;;;5055768;28;20037;-72
2023/04/21 12:43:28;;;;;;;4.22;2.60;;;22.00;85.60;;;;;;5055461;28;20033;-72
2023/04/21 12:45:54;;;;;;;0.95;0.93;;;22.30;87.20;;;;;;5034467;28;20033;-72
2023/04/21 12:48:19;;;;;;;1.25;1.05;;;23.50;86.20;;;;;;5049901;28;20124;-73
2023/04/21 12:50:46;;;;;;;0.65;0.43;;;23.60;83.60;;;;;;5055172;28;20021;-72
2023/04/21 12:53:12;;;;;;;0.17;0.17;;;23.70;83.80;;;;;;5055859;28;20112;-72
2023/04/21 12:55:38;;;;;;;1.45;0.85;;;23.50;84.30;;;;;;5055476;28;20021;-72